• Join FlightAware (Why Join?)
  • Login
  • US Flag 
02:36PM EDT


 

Airport Tracker/Info


-or-


 

Live Flight TrackerFlight Track Log ✈ FLG3667 ✈ 02-May-2013 ✈ KDTW - KGRR

Flight Track Log - Related Links

Times and Time Zones

All times are in EDT time to prevent confusion due to time zone crossing. See the FLG3667 flight status page for this flight to view local times or setup timezone preferences in your user account.

Time Position Orientation Groundspeed Altitude Reporting Facility
EDT Latitude Longitude Course Direction KTS MPH feet Rate Location/Type
04:49PM 42.2017 -83.3583 274° West 169 194 1,300  Level Cleveland Center
04:49PM 42.1922 -83.4025 254° West 221 254 2,700 1,560 Climbing Cleveland Center
04:51PM 42.1983 -83.4925 275° West 260 299 4,100 1,080 Climbing Cleveland Center
04:52PM 42.3150 -83.7916 285° West  Level FlightAware Approximate
04:52PM 42.2058 -83.5994 275° West 277 319 5,000  Level Cleveland Center
04:53PM 42.3469 -83.9007 292° West  Level FlightAware Approximate
04:53PM 42.2158 -83.6953 278° West 267 307 5,300  Level Cleveland Center
04:54PM 42.3756 -84.0112 285° West  Level FlightAware Approximate
04:55PM 42.3983 -84.1246 285° West  Level FlightAware Approximate
04:55PM 42.3120 -83.8399 312° West  Level FlightAware Approximate
04:56PM 42.4189 -84.2303 274° West  Level FlightAware Approximate
05:02PM 42.5286 -84.4687 295° West  Level Estimated
05:03PM 42.5911 -84.5205 329° Northwest  Level FlightAware Approximate
05:04PM 42.6183 -84.6128 304° West  Level Estimated
05:04PM 42.7142 -84.7208 289° West 365 420 9,900  Level Chicago Center
05:05PM 42.6830 -84.6592 332° Northwest  Level FlightAware Approximate
05:05PM 42.7314 -84.8414 281° West 334 384 9,900  Level Chicago Center
05:06PM 42.7051 -84.7541 270° West  Level Estimated
05:06PM 42.7414 -84.9636 276° West 327 376 9,900  Level Chicago Center
05:07PM 42.7271 -84.8490 276° West  Level Estimated
05:07PM 42.7542 -85.0806 279° West 319 367 9,800  Level Chicago Center
05:08PM 42.7305 -84.9485 273° West  Level FlightAware Approximate
05:08PM 42.7667 -85.1844 279° West 291 335 8,100  Level Chicago Center
05:09PM 42.7553 -85.0423 289° West  Level Estimated
05:09PM 42.7764 -85.3100 276° West 280 322 5,700  Level Chicago Center
05:10PM 42.7842 -85.4136 276° West 278 320 5,000 -360 Descending Chicago Center
05:11PM 42.7828 -85.4981 269° West 234 269 5,000 -660 Level Chicago Center
05:12PM 42.7811 -85.5861 269° West 230 265 3,700 -1,020 Descending Chicago Center
05:13PM 42.7808 -85.6683 270° West 224 258 3,000 -720 Descending Chicago Center